Pontoon Beach, Illinois
Current Conditions -  °F | °C
As of 7:50 PM on Wednesday 22 Oct 2014 (Local Time) from KALN Reporting Station
Clear Clear  
Wind Chill: 44°   Ceiling: Unl
Heat Index: 46°   Visibility: 10mi
Dew Point: 39°   Wind: 6mph
Humidity: 76%   Direction: 120°ESE
Pressure: 30.23"   Gusts: NA
Location:  38.7259°N, 90.0982°W
Report Text: KALN 230050Z 12005KT 10SM SKC 08/04 A3023
Loading
Personal Weather Stations






























Interactive Weather Map
Tropical Storm Tracking
New forecast layout! Learn more

10-Day Weather Forecast

Advertisements
Track Severe Weather on mobile